sensor_id;sensor_type;location;lat;lon;timestamp;temperature;humidity
34927;DHT22;21132;48.308;14.274;2023-03-17T00:01:24;7.70;38.40
34927;DHT22;21132;48.308;14.274;2023-03-17T00:03:50;7.60;38.30
34927;DHT22;21132;48.308;14.274;2023-03-17T00:06:20;7.60;38.90
34927;DHT22;21132;48.308;14.274;2023-03-17T00:08:49;7.60;39.40
34927;DHT22;21132;48.308;14.274;2023-03-17T00:11:16;7.50;39.40
34927;DHT22;21132;48.308;14.274;2023-03-17T00:13:43;7.50;39.20
34927;DHT22;21132;48.308;14.274;2023-03-17T00:16:24;7.40;39.50
34927;DHT22;21132;48.308;14.274;2023-03-17T00:18:52;7.40;40.10
34927;DHT22;21132;48.308;14.274;2023-03-17T00:21:36;7.30;40.00
34927;DHT22;21132;48.308;14.274;2023-03-17T00:24:07;7.30;39.70
34927;DHT22;21132;48.308;14.274;2023-03-17T00:26:34;7.30;40.30
34927;DHT22;21132;48.308;14.274;2023-03-17T00:29:04;7.20;41.20
34927;DHT22;21132;48.308;14.274;2023-03-17T00:31:33;7.20;40.50
34927;DHT22;21132;48.308;14.274;2023-03-17T00:33:59;7.20;41.10
34927;DHT22;21132;48.308;14.274;2023-03-17T00:36:28;7.10;41.00
34927;DHT22;21132;48.308;14.274;2023-03-17T00:38:58;7.10;41.10
34927;DHT22;21132;48.308;14.274;2023-03-17T00:41:26;7.00;41.40
34927;DHT22;21132;48.308;14.274;2023-03-17T00:43:52;7.00;41.90
34927;DHT22;21132;48.308;14.274;2023-03-17T00:46:25;6.90;41.70
34927;DHT22;21132;48.308;14.274;2023-03-17T00:48:58;6.90;41.70
34927;DHT22;21132;48.308;14.274;2023-03-17T00:51:28;6.90;41.10
34927;DHT22;21132;48.308;14.274;2023-03-17T00:53:56;6.90;41.50
34927;DHT22;21132;48.308;14.274;2023-03-17T00:56:22;6.90;41.90
34927;DHT22;21132;48.308;14.274;2023-03-17T00:58:48;6.90;42.30
34927;DHT22;21132;48.308;14.274;2023-03-17T01:01:14;6.80;41.80
34927;DHT22;21132;48.308;14.274;2023-03-17T01:03:43;6.90;41.50
34927;DHT22;21132;48.308;14.274;2023-03-17T01:06:13;6.80;42.20
34927;DHT22;21132;48.308;14.274;2023-03-17T01:08:40;6.80;42.50
34927;DHT22;21132;48.308;14.274;2023-03-17T01:11:16;6.80;42.40
34927;DHT22;21132;48.308;14.274;2023-03-17T01:13:48;6.70;42.50
34927;DHT22;21132;48.308;14.274;2023-03-17T01:16:15;6.70;42.50
34927;DHT22;21132;48.308;14.274;2023-03-17T01:18:44;6.70;42.50
34927;DHT22;21132;48.308;14.274;2023-03-17T01:21:12;6.70;42.40
34927;DHT22;21132;48.308;14.274;2023-03-17T01:23:41;6.70;43.10
34927;DHT22;21132;48.308;14.274;2023-03-17T01:26:08;6.70;43.20
34927;DHT22;21132;48.308;14.274;2023-03-17T01:28:41;6.70;43.40
34927;DHT22;21132;48.308;14.274;2023-03-17T01:31:10;6.60;43.80
34927;DHT22;21132;48.308;14.274;2023-03-17T01:33:37;6.50;43.90
34927;DHT22;21132;48.308;14.274;2023-03-17T01:36:03;6.50;44.40
34927;DHT22;21132;48.308;14.274;2023-03-17T01:38:29;6.50;44.10
34927;DHT22;21132;48.308;14.274;2023-03-17T01:40:56;6.40;44.10
34927;DHT22;21132;48.308;14.274;2023-03-17T01:43:31;6.40;44.10
34927;DHT22;21132;48.308;14.274;2023-03-17T01:46:34;6.50;44.10
34927;DHT22;21132;48.308;14.274;2023-03-17T01:54:12;6.40;44.50
34927;DHT22;21132;48.308;14.274;2023-03-17T01:56:51;6.30;44.60
34927;DHT22;21132;48.308;14.274;2023-03-17T01:59:24;6.30;44.90
34927;DHT22;21132;48.308;14.274;2023-03-17T02:01:56;6.30;44.90
34927;DHT22;21132;48.308;14.274;2023-03-17T02:04:23;6.30;44.80
34927;DHT22;21132;48.308;14.274;2023-03-17T02:06:53;6.30;44.80
34927;DHT22;21132;48.308;14.274;2023-03-17T02:09:20;6.30;45.40
34927;DHT22;21132;48.308;14.274;2023-03-17T02:11:46;6.20;45.60
34927;DHT22;21132;48.308;14.274;2023-03-17T02:14:15;6.10;45.60
34927;DHT22;21132;48.308;14.274;2023-03-17T02:16:43;6.10;45.60
34927;DHT22;21132;48.308;14.274;2023-03-17T02:19:15;6.10;45.90
34927;DHT22;21132;48.308;14.274;2023-03-17T02:21:48;6.20;46.10
34927;DHT22;21132;48.308;14.274;2023-03-17T02:24:38;6.10;46.10
34927;DHT22;21132;48.308;14.274;2023-03-17T02:27:27;6.00;46.20
34927;DHT22;21132;48.308;14.274;2023-03-17T02:29:58;6.10;46.40
34927;DHT22;21132;48.308;14.274;2023-03-17T02:32:26;6.10;46.40
34927;DHT22;21132;48.308;14.274;2023-03-17T02:34:52;6.00;46.00
34927;DHT22;21132;48.308;14.274;2023-03-17T02:37:18;6.00;46.20
34927;DHT22;21132;48.308;14.274;2023-03-17T02:39:48;6.00;46.60
34927;DHT22;21132;48.308;14.274;2023-03-17T02:42:14;5.90;46.70
34927;DHT22;21132;48.308;14.274;2023-03-17T02:44:39;6.00;46.50
34927;DHT22;21132;48.308;14.274;2023-03-17T02:47:06;6.00;46.60
34927;DHT22;21132;48.308;14.274;2023-03-17T02:49:34;6.00;46.40
34927;DHT22;21132;48.308;14.274;2023-03-17T02:52:06;6.00;46.30
34927;DHT22;21132;48.308;14.274;2023-03-17T02:54:35;6.00;46.10
34927;DHT22;21132;48.308;14.274;2023-03-17T02:57:04;6.00;46.10
34927;DHT22;21132;48.308;14.274;2023-03-17T02:59:30;6.00;45.90
34927;DHT22;21132;48.308;14.274;2023-03-17T03:01:58;6.00;46.30
34927;DHT22;21132;48.308;14.274;2023-03-17T03:04:25;6.00;46.60
34927;DHT22;21132;48.308;14.274;2023-03-17T03:06:52;5.90;46.60
34927;DHT22;21132;48.308;14.274;2023-03-17T03:09:21;5.90;46.60
34927;DHT22;21132;48.308;14.274;2023-03-17T03:11:47;5.90;46.40
34927;DHT22;21132;48.308;14.274;2023-03-17T03:14:13;5.90;46.40
34927;DHT22;21132;48.308;14.274;2023-03-17T03:16:39;5.90;46.30
34927;DHT22;21132;48.308;14.274;2023-03-17T03:19:05;5.90;46.10
34927;DHT22;21132;48.308;14.274;2023-03-17T03:21:36;5.90;46.10
34927;DHT22;21132;48.308;14.274;2023-03-17T03:24:03;5.90;46.40
34927;DHT22;21132;48.308;14.274;2023-03-17T03:26:30;5.90;46.70
34927;DHT22;21132;48.308;14.274;2023-03-17T03:28:56;5.90;46.80
34927;DHT22;21132;48.308;14.274;2023-03-17T03:31:23;5.80;46.70
34927;DHT22;21132;48.308;14.274;2023-03-17T03:33:49;5.80;46.90
34927;DHT22;21132;48.308;14.274;2023-03-17T03:36:17;5.80;47.00
34927;DHT22;21132;48.308;14.274;2023-03-17T03:38:43;5.70;47.30
34927;DHT22;21132;48.308;14.274;2023-03-17T03:41:09;5.70;47.30
34927;DHT22;21132;48.308;14.274;2023-03-17T03:43:40;5.60;47.50
34927;DHT22;21132;48.308;14.274;2023-03-17T03:46:06;5.60;47.40
34927;DHT22;21132;48.308;14.274;2023-03-17T03:48:32;5.70;47.20
34927;DHT22;21132;48.308;14.274;2023-03-17T03:51:00;5.60;47.30
34927;DHT22;21132;48.308;14.274;2023-03-17T03:53:27;5.60;47.30
34927;DHT22;21132;48.308;14.274;2023-03-17T03:55:53;5.60;47.30
34927;DHT22;21132;48.308;14.274;2023-03-17T03:58:22;5.70;47.00
34927;DHT22;21132;48.308;14.274;2023-03-17T04:00:48;5.70;46.90
34927;DHT22;21132;48.308;14.274;2023-03-17T04:03:14;5.70;46.90
34927;DHT22;21132;48.308;14.274;2023-03-17T04:05:40;5.70;47.00
34927;DHT22;21132;48.308;14.274;2023-03-17T04:08:06;5.70;46.90
34927;DHT22;21132;48.308;14.274;2023-03-17T04:10:33;5.70;47.00
34927;DHT22;21132;48.308;14.274;2023-03-17T04:12:59;5.70;46.90
34927;DHT22;21132;48.308;14.274;2023-03-17T04:15:25;5.70;46.80
34927;DHT22;21132;48.308;14.274;2023-03-17T04:17:51;5.70;47.10
34927;DHT22;21132;48.308;14.274;2023-03-17T04:20:19;5.70;47.10
34927;DHT22;21132;48.308;14.274;2023-03-17T04:22:45;5.70;46.90
34927;DHT22;21132;48.308;14.274;2023-03-17T04:25:13;5.70;46.70
34927;DHT22;21132;48.308;14.274;2023-03-17T04:27:40;5.70;47.00
34927;DHT22;21132;48.308;14.274;2023-03-17T04:30:09;5.70;47.20
34927;DHT22;21132;48.308;14.274;2023-03-17T04:32:35;5.70;47.20
34927;DHT22;21132;48.308;14.274;2023-03-17T04:35:01;5.70;47.60
34927;DHT22;21132;48.308;14.274;2023-03-17T04:37:26;5.80;47.60
34927;DHT22;21132;48.308;14.274;2023-03-17T04:39:55;5.80;47.50
34927;DHT22;21132;48.308;14.274;2023-03-17T04:42:22;5.80;47.50
34927;DHT22;21132;48.308;14.274;2023-03-17T04:44:48;5.90;47.70
34927;DHT22;21132;48.308;14.274;2023-03-17T04:47:14;5.90;48.50
34927;DHT22;21132;48.308;14.274;2023-03-17T04:49:41;5.80;48.60
34927;DHT22;21132;48.308;14.274;2023-03-17T04:52:07;5.80;49.00
34927;DHT22;21132;48.308;14.274;2023-03-17T04:54:33;5.80;48.70
34927;DHT22;21132;48.308;14.274;2023-03-17T04:56:58;5.90;48.80
34927;DHT22;21132;48.308;14.274;2023-03-17T04:59:24;5.90;49.00
34927;DHT22;21132;48.308;14.274;2023-03-17T05:01:50;5.90;49.10
34927;DHT22;21132;48.308;14.274;2023-03-17T05:04:16;5.90;49.20
34927;DHT22;21132;48.308;14.274;2023-03-17T05:06:42;5.80;49.30
34927;DHT22;21132;48.308;14.274;2023-03-17T05:09:08;5.80;49.50
34927;DHT22;21132;48.308;14.274;2023-03-17T05:11:34;5.80;49.60
34927;DHT22;21132;48.308;14.274;2023-03-17T05:14:00;5.80;49.30
34927;DHT22;21132;48.308;14.274;2023-03-17T05:16:26;5.80;49.10
34927;DHT22;21132;48.308;14.274;2023-03-17T05:18:52;5.80;48.90
34927;DHT22;21132;48.308;14.274;2023-03-17T05:21:18;5.80;49.40
34927;DHT22;21132;48.308;14.274;2023-03-17T05:23:43;5.80;49.70
34927;DHT22;21132;48.308;14.274;2023-03-17T05:26:09;5.70;49.70
34927;DHT22;21132;48.308;14.274;2023-03-17T05:28:35;5.70;49.70
34927;DHT22;21132;48.308;14.274;2023-03-17T05:31:01;5.60;49.70
34927;DHT22;21132;48.308;14.274;2023-03-17T05:33:28;5.60;49.70
34927;DHT22;21132;48.308;14.274;2023-03-17T05:35:54;5.60;49.50
34927;DHT22;21132;48.308;14.274;2023-03-17T05:38:22;5.60;49.30
34927;DHT22;21132;48.308;14.274;2023-03-17T05:40:49;5.50;49.40
34927;DHT22;21132;48.308;14.274;2023-03-17T05:43:15;5.50;49.30
34927;DHT22;21132;48.308;14.274;2023-03-17T05:45:41;5.60;49.30
34927;DHT22;21132;48.308;14.274;2023-03-17T05:48:07;5.70;49.20
34927;DHT22;21132;48.308;14.274;2023-03-17T05:50:33;5.70;49.10
34927;DHT22;21132;48.308;14.274;2023-03-17T05:52:59;5.70;49.00
34927;DHT22;21132;48.308;14.274;2023-03-17T05:55:25;5.80;49.00
34927;DHT22;21132;48.308;14.274;2023-03-17T05:57:51;5.80;48.80
34927;DHT22;21132;48.308;14.274;2023-03-17T06:00:17;5.90;48.80
34927;DHT22;21132;48.308;14.274;2023-03-17T06:02:43;5.90;49.00
34927;DHT22;21132;48.308;14.274;2023-03-17T06:05:12;6.00;49.10
34927;DHT22;21132;48.308;14.274;2023-03-17T06:07:38;6.00;48.90
34927;DHT22;21132;48.308;14.274;2023-03-17T06:10:04;6.10;48.90
34927;DHT22;21132;48.308;14.274;2023-03-17T06:12:31;6.20;48.80
34927;DHT22;21132;48.308;14.274;2023-03-17T06:14:57;6.20;48.70
34927;DHT22;21132;48.308;14.274;2023-03-17T06:17:23;6.30;48.90
34927;DHT22;21132;48.308;14.274;2023-03-17T06:19:58;6.40;48.90
34927;DHT22;21132;48.308;14.274;2023-03-17T06:22:24;6.50;49.00
34927;DHT22;21132;48.308;14.274;2023-03-17T06:24:50;6.50;48.90
34927;DHT22;21132;48.308;14.274;2023-03-17T06:27:18;6.60;48.70
34927;DHT22;21132;48.308;14.274;2023-03-17T06:29:44;6.70;48.60
34927;DHT22;21132;48.308;14.274;2023-03-17T06:32:11;6.80;48.40
34927;DHT22;21132;48.308;14.274;2023-03-17T06:34:37;6.80;48.20
34927;DHT22;21132;48.308;14.274;2023-03-17T06:37:04;6.90;48.00
34927;DHT22;21132;48.308;14.274;2023-03-17T06:39:32;7.00;47.80
34927;DHT22;21132;48.308;14.274;2023-03-17T06:41:59;7.00;48.30
34927;DHT22;21132;48.308;14.274;2023-03-17T06:44:25;7.10;47.80
34927;DHT22;21132;48.308;14.274;2023-03-17T06:46:50;7.20;47.70
34927;DHT22;21132;48.308;14.274;2023-03-17T06:49:17;7.30;47.50
34927;DHT22;21132;48.308;14.274;2023-03-17T06:51:43;7.30;47.20
34927;DHT22;21132;48.308;14.274;2023-03-17T06:54:08;7.40;47.10
34927;DHT22;21132;48.308;14.274;2023-03-17T06:56:34;7.40;46.90
34927;DHT22;21132;48.308;14.274;2023-03-17T06:59:01;7.50;46.70
34927;DHT22;21132;48.308;14.274;2023-03-17T07:01:27;7.60;46.60
34927;DHT22;21132;48.308;14.274;2023-03-17T07:03:53;7.70;46.50
34927;DHT22;21132;48.308;14.274;2023-03-17T07:06:19;7.70;46.30
34927;DHT22;21132;48.308;14.274;2023-03-17T07:08:48;7.70;45.90
34927;DHT22;21132;48.308;14.274;2023-03-17T07:11:14;7.80;45.80
34927;DHT22;21132;48.308;14.274;2023-03-17T07:13:40;7.90;45.90
34927;DHT22;21132;48.308;14.274;2023-03-17T07:16:06;7.90;45.70
34927;DHT22;21132;48.308;14.274;2023-03-17T07:18:32;8.00;45.70
34927;DHT22;21132;48.308;14.274;2023-03-17T07:21:01;8.10;45.70
34927;DHT22;21132;48.308;14.274;2023-03-17T07:23:28;8.20;45.50
34927;DHT22;21132;48.308;14.274;2023-03-17T07:25:55;8.30;45.40
34927;DHT22;21132;48.308;14.274;2023-03-17T07:28:21;8.40;45.50
34927;DHT22;21132;48.308;14.274;2023-03-17T07:30:48;8.50;45.20
34927;DHT22;21132;48.308;14.274;2023-03-17T07:33:15;8.60;44.90
34927;DHT22;21132;48.308;14.274;2023-03-17T07:35:42;8.70;44.20
34927;DHT22;21132;48.308;14.274;2023-03-17T07:38:09;8.80;44.00
34927;DHT22;21132;48.308;14.274;2023-03-17T07:40:36;8.80;43.70
34927;DHT22;21132;48.308;14.274;2023-03-17T07:43:03;8.80;43.50
34927;DHT22;21132;48.308;14.274;2023-03-17T07:45:29;8.90;43.00
34927;DHT22;21132;48.308;14.274;2023-03-17T07:47:55;8.90;43.00
34927;DHT22;21132;48.308;14.274;2023-03-17T07:50:21;8.90;42.70
34927;DHT22;21132;48.308;14.274;2023-03-17T07:52:47;8.90;42.60
34927;DHT22;21132;48.308;14.274;2023-03-17T07:55:13;9.00;42.30
34927;DHT22;21132;48.308;14.274;2023-03-17T07:57:40;9.00;42.10
34927;DHT22;21132;48.308;14.274;2023-03-17T08:00:08;9.00;41.90
34927;DHT22;21132;48.308;14.274;2023-03-17T08:02:35;9.00;41.90
34927;DHT22;21132;48.308;14.274;2023-03-17T08:05:02;9.00;42.10
34927;DHT22;21132;48.308;14.274;2023-03-17T08:07:29;9.10;42.30
34927;DHT22;21132;48.308;14.274;2023-03-17T08:09:56;9.20;42.20
34927;DHT22;21132;48.308;14.274;2023-03-17T08:12:23;9.20;42.20
34927;DHT22;21132;48.308;14.274;2023-03-17T08:14:49;9.30;41.90
34927;DHT22;21132;48.308;14.274;2023-03-17T08:17:15;9.40;42.10
34927;DHT22;21132;48.308;14.274;2023-03-17T08:19:41;9.50;42.00
34927;DHT22;21132;48.308;14.274;2023-03-17T08:22:07;9.60;42.20
34927;DHT22;21132;48.308;14.274;2023-03-17T08:24:34;9.70;41.90
34927;DHT22;21132;48.308;14.274;2023-03-17T08:27:00;9.70;41.50
34927;DHT22;21132;48.308;14.274;2023-03-17T08:29:26;9.80;41.60
34927;DHT22;21132;48.308;14.274;2023-03-17T08:31:53;9.90;41.80
34927;DHT22;21132;48.308;14.274;2023-03-17T08:34:19;9.90;41.70
34927;DHT22;21132;48.308;14.274;2023-03-17T08:36:44;10.00;41.70
34927;DHT22;21132;48.308;14.274;2023-03-17T08:39:10;10.10;41.60
34927;DHT22;21132;48.308;14.274;2023-03-17T08:41:36;10.20;41.60
34927;DHT22;21132;48.308;14.274;2023-03-17T08:44:03;10.30;41.50
34927;DHT22;21132;48.308;14.274;2023-03-17T08:46:30;10.40;41.30
34927;DHT22;21132;48.308;14.274;2023-03-17T08:48:58;10.40;40.80
34927;DHT22;21132;48.308;14.274;2023-03-17T08:51:27;10.50;40.60
34927;DHT22;21132;48.308;14.274;2023-03-17T08:53:54;10.60;40.50
34927;DHT22;21132;48.308;14.274;2023-03-17T08:56:20;10.60;40.40
34927;DHT22;21132;48.308;14.274;2023-03-17T08:58:46;10.70;40.20
34927;DHT22;21132;48.308;14.274;2023-03-17T09:01:12;10.80;39.90
34927;DHT22;21132;48.308;14.274;2023-03-17T09:03:38;10.90;40.00
34927;DHT22;21132;48.308;14.274;2023-03-17T09:06:06;10.90;39.90
34927;DHT22;21132;48.308;14.274;2023-03-17T09:08:33;11.00;39.80
34927;DHT22;21132;48.308;14.274;2023-03-17T09:11:00;11.10;39.70
34927;DHT22;21132;48.308;14.274;2023-03-17T09:13:28;11.10;38.60
34927;DHT22;21132;48.308;14.274;2023-03-17T09:15:54;11.20;38.40
34927;DHT22;21132;48.308;14.274;2023-03-17T09:18:20;11.30;38.40
34927;DHT22;21132;48.308;14.274;2023-03-17T09:20:46;11.30;38.50
34927;DHT22;21132;48.308;14.274;2023-03-17T09:23:12;11.50;38.20
34927;DHT22;21132;48.308;14.274;2023-03-17T09:25:39;11.60;38.30
34927;DHT22;21132;48.308;14.274;2023-03-17T09:28:07;11.70;38.30
34927;DHT22;21132;48.308;14.274;2023-03-17T09:30:33;11.70;38.40
34927;DHT22;21132;48.308;14.274;2023-03-17T09:32:59;11.80;38.40
34927;DHT22;21132;48.308;14.274;2023-03-17T09:35:26;11.90;38.30
34927;DHT22;21132;48.308;14.274;2023-03-17T09:37:56;12.00;37.80
34927;DHT22;21132;48.308;14.274;2023-03-17T09:40:29;12.10;37.70
34927;DHT22;21132;48.308;14.274;2023-03-17T09:45:50;12.20;37.40
34927;DHT22;21132;48.308;14.274;2023-03-17T09:51:24;12.40;37.30
34927;DHT22;21132;48.308;14.274;2023-03-17T09:54:02;12.50;37.20
34927;DHT22;21132;48.308;14.274;2023-03-17T09:56:31;12.50;37.10
34927;DHT22;21132;48.308;14.274;2023-03-17T10:01:42;12.60;36.90
34927;DHT22;21132;48.308;14.274;2023-03-17T10:04:10;12.70;35.90
34927;DHT22;21132;48.308;14.274;2023-03-17T10:06:41;12.70;35.80
34927;DHT22;21132;48.308;14.274;2023-03-17T10:09:33;12.80;35.60
34927;DHT22;21132;48.308;14.274;2023-03-17T10:12:09;12.80;36.00
34927;DHT22;21132;48.308;14.274;2023-03-17T10:14:50;12.90;36.20
34927;DHT22;21132;48.308;14.274;2023-03-17T10:17:21;13.00;35.80
34927;DHT22;21132;48.308;14.274;2023-03-17T10:19:55;13.00;35.70
34927;DHT22;21132;48.308;14.274;2023-03-17T10:22:43;13.10;35.50
34927;DHT22;21132;48.308;14.274;2023-03-17T10:30:40;13.30;35.30
34927;DHT22;21132;48.308;14.274;2023-03-17T10:33:08;13.40;35.30
34927;DHT22;21132;48.308;14.274;2023-03-17T10:35:35;13.50;35.60
34927;DHT22;21132;48.308;14.274;2023-03-17T10:38:23;13.50;35.30
34927;DHT22;21132;48.308;14.274;2023-03-17T10:41:00;13.60;35.30
34927;DHT22;21132;48.308;14.274;2023-03-17T10:43:34;13.60;35.30
34927;DHT22;21132;48.308;14.274;2023-03-17T10:46:05;13.70;35.40
34927;DHT22;21132;48.308;14.274;2023-03-17T10:48:37;13.80;34.80
34927;DHT22;21132;48.308;14.274;2023-03-17T10:51:08;13.80;34.80
34927;DHT22;21132;48.308;14.274;2023-03-17T10:53:39;14.00;34.80
34927;DHT22;21132;48.308;14.274;2023-03-17T10:56:09;14.00;34.90
34927;DHT22;21132;48.308;14.274;2023-03-17T10:58:44;14.10;34.10
34927;DHT22;21132;48.308;14.274;2023-03-17T11:01:29;14.20;34.00
34927;DHT22;21132;48.308;14.274;2023-03-17T11:03:59;14.20;34.20
34927;DHT22;21132;48.308;14.274;2023-03-17T11:06:39;14.30;33.80
34927;DHT22;21132;48.308;14.274;2023-03-17T11:09:14;14.40;33.80
34927;DHT22;21132;48.308;14.274;2023-03-17T11:11:48;14.50;33.90
34927;DHT22;21132;48.308;14.274;2023-03-17T11:14:16;14.60;34.10
34927;DHT22;21132;48.308;14.274;2023-03-17T11:16:55;14.70;33.80
34927;DHT22;21132;48.308;14.274;2023-03-17T11:19:40;14.80;33.70
34927;DHT22;21132;48.308;14.274;2023-03-17T11:22:19;14.80;33.30
34927;DHT22;21132;48.308;14.274;2023-03-17T11:27:30;15.00;33.10
34927;DHT22;21132;48.308;14.274;2023-03-17T11:30:13;15.00;33.00
34927;DHT22;21132;48.308;14.274;2023-03-17T11:38:26;15.20;33.20
34927;DHT22;21132;48.308;14.274;2023-03-17T11:48:57;15.50;33.50
34927;DHT22;21132;48.308;14.274;2023-03-17T11:54:22;15.70;33.10
34927;DHT22;21132;48.308;14.274;2023-03-17T11:56:54;15.70;33.10
34927;DHT22;21132;48.308;14.274;2023-03-17T11:59:31;15.80;32.80
34927;DHT22;21132;48.308;14.274;2023-03-17T12:02:35;15.80;32.10
34927;DHT22;21132;48.308;14.274;2023-03-17T12:05:07;15.90;32.20
34927;DHT22;21132;48.308;14.274;2023-03-17T12:07:57;15.90;32.10
34927;DHT22;21132;48.308;14.274;2023-03-17T12:10:29;16.00;31.80
34927;DHT22;21132;48.308;14.274;2023-03-17T12:15:42;16.10;31.20
34927;DHT22;21132;48.308;14.274;2023-03-17T12:18:11;16.10;30.80
34927;DHT22;21132;48.308;14.274;2023-03-17T12:21:08;16.30;31.80
34927;DHT22;21132;48.308;14.274;2023-03-17T12:23:47;16.40;31.40
34927;DHT22;21132;48.308;14.274;2023-03-17T12:29:10;16.50;31.00
34927;DHT22;21132;48.308;14.274;2023-03-17T12:31:51;16.60;30.60
34927;DHT22;21132;48.308;14.274;2023-03-17T12:34:27;16.60;30.20
34927;DHT22;21132;48.308;14.274;2023-03-17T12:36:57;16.70;30.50
34927;DHT22;21132;48.308;14.274;2023-03-17T12:39:32;16.80;30.70
34927;DHT22;21132;48.308;14.274;2023-03-17T12:42:26;16.90;31.00
34927;DHT22;21132;48.308;14.274;2023-03-17T12:45:16;17.00;31.10
34927;DHT22;21132;48.308;14.274;2023-03-17T12:55:33;17.30;29.90
34927;DHT22;21132;48.308;14.274;2023-03-17T12:58:05;17.30;30.00
34927;DHT22;21132;48.308;14.274;2023-03-17T13:01:19;17.40;29.80
34927;DHT22;21132;48.308;14.274;2023-03-17T13:03:55;17.50;30.10
34927;DHT22;21132;48.308;14.274;2023-03-17T13:06:23;17.60;29.70
34927;DHT22;21132;48.308;14.274;2023-03-17T13:08:51;17.60;29.70
34927;DHT22;21132;48.308;14.274;2023-03-17T13:11:17;17.70;30.00
34927;DHT22;21132;48.308;14.274;2023-03-17T13:16:45;17.90;30.20
34927;DHT22;21132;48.308;14.274;2023-03-17T13:19:24;17.90;29.80
34927;DHT22;21132;48.308;14.274;2023-03-17T13:27:10;18.00;28.90
34927;DHT22;21132;48.308;14.274;2023-03-17T13:29:44;18.00;28.90
34927;DHT22;21132;48.308;14.274;2023-03-17T13:34:46;18.00;29.30
34927;DHT22;21132;48.308;14.274;2023-03-17T13:39:58;18.10;29.30
34927;DHT22;21132;48.308;14.274;2023-03-17T13:45:36;18.10;28.90
34927;DHT22;21132;48.308;14.274;2023-03-17T13:48:34;18.00;28.90
34927;DHT22;21132;48.308;14.274;2023-03-17T13:53:39;18.00;28.80
34927;DHT22;21132;48.308;14.274;2023-03-17T14:01:31;18.00;29.40
34927;DHT22;21132;48.308;14.274;2023-03-17T14:04:05;18.10;29.00
34927;DHT22;21132;48.308;14.274;2023-03-17T14:06:36;18.10;28.90
34927;DHT22;21132;48.308;14.274;2023-03-17T14:09:35;18.10;28.50
34927;DHT22;21132;48.308;14.274;2023-03-17T14:12:21;18.10;29.50
34927;DHT22;21132;48.308;14.274;2023-03-17T14:17:28;18.20;28.80
34927;DHT22;21132;48.308;14.274;2023-03-17T14:19:59;18.20;28.90
34927;DHT22;21132;48.308;14.274;2023-03-17T14:22:25;18.20;29.50
34927;DHT22;21132;48.308;14.274;2023-03-17T14:24:53;18.30;29.00
34927;DHT22;21132;48.308;14.274;2023-03-17T14:27:21;18.30;28.70
34927;DHT22;21132;48.308;14.274;2023-03-17T14:29:49;18.30;28.50
34927;DHT22;21132;48.308;14.274;2023-03-17T14:32:19;18.40;28.50
34927;DHT22;21132;48.308;14.274;2023-03-17T14:34:54;18.40;28.70
34927;DHT22;21132;48.308;14.274;2023-03-17T14:37:21;18.50;28.70
34927;DHT22;21132;48.308;14.274;2023-03-17T14:39:50;18.50;28.30
34927;DHT22;21132;48.308;14.274;2023-03-17T14:42:23;18.50;28.70
34927;DHT22;21132;48.308;14.274;2023-03-17T14:45:02;18.60;28.60
34927;DHT22;21132;48.308;14.274;2023-03-17T14:47:30;18.60;28.20
34927;DHT22;21132;48.308;14.274;2023-03-17T14:50:00;18.70;28.40
34927;DHT22;21132;48.308;14.274;2023-03-17T14:52:27;18.70;28.50
34927;DHT22;21132;48.308;14.274;2023-03-17T14:54:58;18.70;28.30
34927;DHT22;21132;48.308;14.274;2023-03-17T14:57:31;18.70;27.50
34927;DHT22;21132;48.308;14.274;2023-03-17T15:02:54;18.80;28.20
34927;DHT22;21132;48.308;14.274;2023-03-17T15:05:41;18.80;27.80
34927;DHT22;21132;48.308;14.274;2023-03-17T15:11:03;18.90;27.70
34927;DHT22;21132;48.308;14.274;2023-03-17T15:13:33;18.90;27.50
34927;DHT22;21132;48.308;14.274;2023-03-17T15:16:15;19.00;28.00
34927;DHT22;21132;48.308;14.274;2023-03-17T15:18:41;19.10;27.60
34927;DHT22;21132;48.308;14.274;2023-03-17T15:21:38;19.20;27.50
34927;DHT22;21132;48.308;14.274;2023-03-17T15:24:18;19.30;27.20
34927;DHT22;21132;48.308;14.274;2023-03-17T15:26:47;19.30;27.00
34927;DHT22;21132;48.308;14.274;2023-03-17T15:29:13;19.50;27.40
34927;DHT22;21132;48.308;14.274;2023-03-17T15:31:39;19.50;27.10
34927;DHT22;21132;48.308;14.274;2023-03-17T15:34:05;19.60;27.10
34927;DHT22;21132;48.308;14.274;2023-03-17T15:36:30;19.60;26.90
34927;DHT22;21132;48.308;14.274;2023-03-17T15:38:56;19.60;26.30
34927;DHT22;21132;48.308;14.274;2023-03-17T15:41:23;19.60;25.70
34927;DHT22;21132;48.308;14.274;2023-03-17T15:43:50;19.60;26.00
34927;DHT22;21132;48.308;14.274;2023-03-17T15:46:26;19.60;26.00
34927;DHT22;21132;48.308;14.274;2023-03-17T15:48:56;19.50;26.00
34927;DHT22;21132;48.308;14.274;2023-03-17T15:51:21;19.50;25.70
34927;DHT22;21132;48.308;14.274;2023-03-17T15:53:48;19.40;25.50
34927;DHT22;21132;48.308;14.274;2023-03-17T15:56:15;19.30;25.40
34927;DHT22;21132;48.308;14.274;2023-03-17T15:58:44;19.30;25.90
34927;DHT22;21132;48.308;14.274;2023-03-17T16:01:11;19.30;25.60
34927;DHT22;21132;48.308;14.274;2023-03-17T16:03:38;19.10;25.80
34927;DHT22;21132;48.308;14.274;2023-03-17T16:06:21;19.10;26.10
34927;DHT22;21132;48.308;14.274;2023-03-17T16:08:48;19.10;26.20
34927;DHT22;21132;48.308;14.274;2023-03-17T16:11:19;19.00;26.10
34927;DHT22;21132;48.308;14.274;2023-03-17T16:13:53;19.00;26.10
34927;DHT22;21132;48.308;14.274;2023-03-17T16:16:39;18.90;26.40
34927;DHT22;21132;48.308;14.274;2023-03-17T16:19:24;18.80;26.20
34927;DHT22;21132;48.308;14.274;2023-03-17T16:21:50;18.70;26.40
34927;DHT22;21132;48.308;14.274;2023-03-17T16:24:18;18.60;26.30
34927;DHT22;21132;48.308;14.274;2023-03-17T16:26:44;18.60;26.60
34927;DHT22;21132;48.308;14.274;2023-03-17T16:29:15;18.50;26.40
34927;DHT22;21132;48.308;14.274;2023-03-17T16:31:49;18.40;26.60
34927;DHT22;21132;48.308;14.274;2023-03-17T16:34:18;18.30;26.60
34927;DHT22;21132;48.308;14.274;2023-03-17T16:36:44;18.20;26.60
34927;DHT22;21132;48.308;14.274;2023-03-17T16:39:19;18.10;26.50
34927;DHT22;21132;48.308;14.274;2023-03-17T16:41:46;18.10;26.70
34927;DHT22;21132;48.308;14.274;2023-03-17T16:44:14;18.00;27.30
34927;DHT22;21132;48.308;14.274;2023-03-17T16:46:40;17.90;27.40
34927;DHT22;21132;48.308;14.274;2023-03-17T16:49:14;17.80;26.90
34927;DHT22;21132;48.308;14.274;2023-03-17T16:51:41;17.80;27.10
34927;DHT22;21132;48.308;14.274;2023-03-17T16:54:08;17.70;27.20
34927;DHT22;21132;48.308;14.274;2023-03-17T16:56:34;17.70;27.20
34927;DHT22;21132;48.308;14.274;2023-03-17T16:59:01;17.60;27.40
34927;DHT22;21132;48.308;14.274;2023-03-17T17:01:27;17.50;27.30
34927;DHT22;21132;48.308;14.274;2023-03-17T17:03:54;17.40;27.40
34927;DHT22;21132;48.308;14.274;2023-03-17T17:06:21;17.40;27.70